sensor_id;sensor_type;location;lat;lon;timestamp;P1;durP1;ratioP1;P2;durP2;ratioP2
3791;SDS011;1911;53.768;11.474;2023-02-01T00:00:58;18.13;;;3.33;;
3791;SDS011;1911;53.768;11.474;2023-02-01T00:03:23;17.67;;;3.67;;
3791;SDS011;1911;53.768;11.474;2023-02-01T00:05:56;15.90;;;4.47;;
3791;SDS011;1911;53.768;11.474;2023-02-01T00:08:22;24.33;;;3.47;;
3791;SDS011;1911;53.768;11.474;2023-02-01T00:10:48;15.53;;;4.30;;
3791;SDS011;1911;53.768;11.474;2023-02-01T00:13:13;13.10;;;2.87;;
3791;SDS011;1911;53.768;11.474;2023-02-01T00:15:39;8.53;;;3.07;;
3791;SDS011;1911;53.768;11.474;2023-02-01T00:18:04;8.10;;;1.70;;
3791;SDS011;1911;53.768;11.474;2023-02-01T00:20:30;17.53;;;2.83;;
3791;SDS011;1911;53.768;11.474;2023-02-01T00:22:55;15.70;;;2.20;;
3791;SDS011;1911;53.768;11.474;2023-02-01T00:25:21;5.90;;;1.83;;
3791;SDS011;1911;53.768;11.474;2023-02-01T00:27:49;9.93;;;1.80;;
3791;SDS011;1911;53.768;11.474;2023-02-01T00:30:16;16.20;;;2.50;;
3791;SDS011;1911;53.768;11.474;2023-02-01T00:32:42;8.45;;;2.33;;
3791;SDS011;1911;53.768;11.474;2023-02-01T00:35:08;11.03;;;2.70;;
3791;SDS011;1911;53.768;11.474;2023-02-01T00:37:33;15.17;;;3.50;;
3791;SDS011;1911;53.768;11.474;2023-02-01T00:39:59;37.03;;;3.57;;
3791;SDS011;1911;53.768;11.474;2023-02-01T00:42:24;17.23;;;4.87;;
3791;SDS011;1911;53.768;11.474;2023-02-01T00:44:50;21.47;;;5.00;;
3791;SDS011;1911;53.768;11.474;2023-02-01T00:47:16;24.73;;;4.60;;
3791;SDS011;1911;53.768;11.474;2023-02-01T00:49:41;12.83;;;2.83;;
3791;SDS011;1911;53.768;11.474;2023-02-01T00:52:07;25.53;;;3.87;;
3791;SDS011;1911;53.768;11.474;2023-02-01T00:54:33;18.13;;;4.70;;
3791;SDS011;1911;53.768;11.474;2023-02-01T00:56:59;21.50;;;4.27;;
3791;SDS011;1911;53.768;11.474;2023-02-01T00:59:25;14.63;;;2.70;;
3791;SDS011;1911;53.768;11.474;2023-02-01T01:01:50;11.30;;;3.10;;
3791;SDS011;1911;53.768;11.474;2023-02-01T01:04:16;19.10;;;2.80;;
3791;SDS011;1911;53.768;11.474;2023-02-01T01:06:41;18.80;;;2.60;;
3791;SDS011;1911;53.768;11.474;2023-02-01T01:09:07;20.90;;;3.90;;
3791;SDS011;1911;53.768;11.474;2023-02-01T01:11:34;16.40;;;3.30;;
3791;SDS011;1911;53.768;11.474;2023-02-01T01:14:02;14.40;;;3.80;;
3791;SDS011;1911;53.768;11.474;2023-02-01T01:16:29;14.90;;;3.67;;
3791;SDS011;1911;53.768;11.474;2023-02-01T01:18:56;20.90;;;4.33;;
3791;SDS011;1911;53.768;11.474;2023-02-01T01:23:52;12.37;;;2.97;;
3791;SDS011;1911;53.768;11.474;2023-02-01T01:26:31;15.03;;;3.60;;
3791;SDS011;1911;53.768;11.474;2023-02-01T01:28:57;24.73;;;3.77;;
3791;SDS011;1911;53.768;11.474;2023-02-01T01:31:56;26.90;;;4.07;;
3791;SDS011;1911;53.768;11.474;2023-02-01T01:34:57;16.47;;;3.50;;
3791;SDS011;1911;53.768;11.474;2023-02-01T01:38:17;24.30;;;4.70;;
3791;SDS011;1911;53.768;11.474;2023-02-01T01:40:46;17.27;;;3.60;;
3791;SDS011;1911;53.768;11.474;2023-02-01T01:43:19;24.20;;;3.73;;
3791;SDS011;1911;53.768;11.474;2023-02-01T01:46:25;21.70;;;3.30;;
3791;SDS011;1911;53.768;11.474;2023-02-01T01:48:53;23.50;;;3.73;;
3791;SDS011;1911;53.768;11.474;2023-02-01T01:54:45;12.93;;;3.20;;
3791;SDS011;1911;53.768;11.474;2023-02-01T05:10:29;5.77;;;1.20;;
3791;SDS011;1911;53.768;11.474;2023-02-01T05:12:54;9.10;;;1.30;;
3791;SDS011;1911;53.768;11.474;2023-02-01T05:15:43;3.00;;;1.00;;
3791;SDS011;1911;53.768;11.474;2023-02-01T05:18:11;3.37;;;1.10;;
3791;SDS011;1911;53.768;11.474;2023-02-01T05:20:44;3.63;;;1.13;;
3791;SDS011;1911;53.768;11.474;2023-02-01T05:23:09;10.93;;;1.60;;
3791;SDS011;1911;53.768;11.474;2023-02-01T05:25:35;2.70;;;0.70;;
3791;SDS011;1911;53.768;11.474;2023-02-01T05:28:01;3.07;;;1.00;;
3791;SDS011;1911;53.768;11.474;2023-02-01T05:30:26;9.20;;;1.57;;
3791;SDS011;1911;53.768;11.474;2023-02-01T05:32:52;2.40;;;0.80;;
3791;SDS011;1911;53.768;11.474;2023-02-01T05:35:18;3.90;;;1.20;;
3791;SDS011;1911;53.768;11.474;2023-02-01T05:37:44;6.23;;;1.27;;
3791;SDS011;1911;53.768;11.474;2023-02-01T05:40:10;2.70;;;0.90;;
3791;SDS011;1911;53.768;11.474;2023-02-01T05:42:36;1.23;;;0.50;;
3791;SDS011;1911;53.768;11.474;2023-02-01T05:45:01;2.90;;;0.70;;
3791;SDS011;1911;53.768;11.474;2023-02-01T05:47:27;6.63;;;1.33;;
3791;SDS011;1911;53.768;11.474;2023-02-01T05:49:53;4.27;;;1.00;;
3791;SDS011;1911;53.768;11.474;2023-02-01T05:52:19;3.73;;;0.90;;
3791;SDS011;1911;53.768;11.474;2023-02-01T05:54:45;5.23;;;0.70;;
3791;SDS011;1911;53.768;11.474;2023-02-01T05:57:12;5.60;;;0.93;;
3791;SDS011;1911;53.768;11.474;2023-02-01T05:59:38;3.50;;;1.13;;
3791;SDS011;1911;53.768;11.474;2023-02-01T06:02:09;5.17;;;0.93;;
3791;SDS011;1911;53.768;11.474;2023-02-01T06:04:35;2.23;;;0.70;;
3791;SDS011;1911;53.768;11.474;2023-02-01T06:07:01;5.37;;;1.47;;
3791;SDS011;1911;53.768;11.474;2023-02-01T06:09:30;10.43;;;2.00;;
3791;SDS011;1911;53.768;11.474;2023-02-01T06:11:56;2.97;;;1.17;;
3791;SDS011;1911;53.768;11.474;2023-02-01T06:14:22;14.60;;;2.17;;
3791;SDS011;1911;53.768;11.474;2023-02-01T06:16:49;5.53;;;1.23;;
3791;SDS011;1911;53.768;11.474;2023-02-01T06:19:15;6.13;;;1.37;;
3791;SDS011;1911;53.768;11.474;2023-02-01T06:21:41;6.00;;;1.10;;
3791;SDS011;1911;53.768;11.474;2023-02-01T06:24:09;5.40;;;1.00;;
3791;SDS011;1911;53.768;11.474;2023-02-01T06:26:36;4.30;;;0.80;;
3791;SDS011;1911;53.768;11.474;2023-02-01T06:29:06;3.15;;;1.08;;
3791;SDS011;1911;53.768;11.474;2023-02-01T06:31:34;3.73;;;1.07;;
3791;SDS011;1911;53.768;11.474;2023-02-01T06:34:00;7.43;;;1.07;;
3791;SDS011;1911;53.768;11.474;2023-02-01T06:36:26;2.60;;;1.33;;
3791;SDS011;1911;53.768;11.474;2023-02-01T06:38:51;2.53;;;0.93;;
3791;SDS011;1911;53.768;11.474;2023-02-01T06:41:17;1.40;;;0.70;;
3791;SDS011;1911;53.768;11.474;2023-02-01T06:43:45;1.67;;;0.70;;
3791;SDS011;1911;53.768;11.474;2023-02-01T06:46:12;2.23;;;0.90;;
3791;SDS011;1911;53.768;11.474;2023-02-01T06:48:37;3.93;;;0.87;;
3791;SDS011;1911;53.768;11.474;2023-02-01T06:51:03;0.90;;;0.50;;
3791;SDS011;1911;53.768;11.474;2023-02-01T06:53:29;1.37;;;0.60;;
3791;SDS011;1911;53.768;11.474;2023-02-01T06:55:56;1.57;;;0.73;;
3791;SDS011;1911;53.768;11.474;2023-02-01T06:58:24;1.93;;;0.80;;
3791;SDS011;1911;53.768;11.474;2023-02-01T07:00:53;1.67;;;0.82;;
3791;SDS011;1911;53.768;11.474;2023-02-01T07:03:18;3.00;;;1.10;;
3791;SDS011;1911;53.768;11.474;2023-02-01T07:05:44;1.10;;;0.70;;
3791;SDS011;1911;53.768;11.474;2023-02-01T07:08:10;10.23;;;1.10;;
3791;SDS011;1911;53.768;11.474;2023-02-01T07:10:36;3.60;;;0.90;;
3791;SDS011;1911;53.768;11.474;2023-02-01T07:13:02;4.10;;;1.00;;
3791;SDS011;1911;53.768;11.474;2023-02-01T07:15:27;1.97;;;0.90;;
3791;SDS011;1911;53.768;11.474;2023-02-01T07:17:56;4.77;;;1.00;;
3791;SDS011;1911;53.768;11.474;2023-02-01T07:20:22;3.40;;;1.05;;
3791;SDS011;1911;53.768;11.474;2023-02-01T07:22:48;6.10;;;1.40;;
3791;SDS011;1911;53.768;11.474;2023-02-01T07:25:25;2.90;;;1.20;;
3791;SDS011;1911;53.768;11.474;2023-02-01T07:27:50;1.30;;;0.70;;
3791;SDS011;1911;53.768;11.474;2023-02-01T07:30:16;5.73;;;1.30;;
3791;SDS011;1911;53.768;11.474;2023-02-01T07:32:42;6.37;;;1.23;;
3791;SDS011;1911;53.768;11.474;2023-02-01T07:35:08;5.13;;;1.13;;
3791;SDS011;1911;53.768;11.474;2023-02-01T07:37:34;4.60;;;1.27;;
3791;SDS011;1911;53.768;11.474;2023-02-01T07:40:00;5.00;;;1.40;;
3791;SDS011;1911;53.768;11.474;2023-02-01T07:42:25;5.03;;;1.37;;
3791;SDS011;1911;53.768;11.474;2023-02-01T07:44:51;5.33;;;1.40;;
3791;SDS011;1911;53.768;11.474;2023-02-01T07:47:16;2.00;;;1.40;;
3791;SDS011;1911;53.768;11.474;2023-02-01T07:49:42;6.53;;;1.60;;
3791;SDS011;1911;53.768;11.474;2023-02-01T07:52:08;8.17;;;1.30;;
3791;SDS011;1911;53.768;11.474;2023-02-01T07:54:33;5.10;;;1.57;;
3791;SDS011;1911;53.768;11.474;2023-02-01T07:57:00;2.53;;;1.23;;
3791;SDS011;1911;53.768;11.474;2023-02-01T07:59:26;3.03;;;1.10;;
3791;SDS011;1911;53.768;11.474;2023-02-01T08:01:51;5.83;;;1.20;;
3791;SDS011;1911;53.768;11.474;2023-02-01T08:04:17;4.20;;;1.10;;
3791;SDS011;1911;53.768;11.474;2023-02-01T08:06:43;5.87;;;1.30;;
3791;SDS011;1911;53.768;11.474;2023-02-01T08:09:08;3.70;;;1.30;;
3791;SDS011;1911;53.768;11.474;2023-02-01T08:11:35;4.73;;;1.53;;
3791;SDS011;1911;53.768;11.474;2023-02-01T08:14:02;7.40;;;1.20;;
3791;SDS011;1911;53.768;11.474;2023-02-01T08:16:29;6.87;;;1.30;;
3791;SDS011;1911;53.768;11.474;2023-02-01T08:18:55;3.17;;;1.30;;
3791;SDS011;1911;53.768;11.474;2023-02-01T08:21:25;6.67;;;1.50;;
3791;SDS011;1911;53.768;11.474;2023-02-01T08:24:01;3.20;;;1.43;;
3791;SDS011;1911;53.768;11.474;2023-02-01T08:26:30;6.70;;;1.20;;
3791;SDS011;1911;53.768;11.474;2023-02-01T08:28:59;5.77;;;1.27;;
3791;SDS011;1911;53.768;11.474;2023-02-01T08:31:28;3.97;;;1.03;;
3791;SDS011;1911;53.768;11.474;2023-02-01T08:34:01;5.27;;;1.33;;
3791;SDS011;1911;53.768;11.474;2023-02-01T08:36:29;5.57;;;1.63;;
3791;SDS011;1911;53.768;11.474;2023-02-01T08:38:56;3.87;;;1.27;;
3791;SDS011;1911;53.768;11.474;2023-02-01T08:41:23;5.80;;;1.40;;
3791;SDS011;1911;53.768;11.474;2023-02-01T08:43:56;5.83;;;1.67;;
3791;SDS011;1911;53.768;11.474;2023-02-01T08:46:24;5.23;;;1.80;;
3791;SDS011;1911;53.768;11.474;2023-02-01T08:48:50;6.07;;;2.13;;
3791;SDS011;1911;53.768;11.474;2023-02-01T08:51:17;6.10;;;2.03;;
3791;SDS011;1911;53.768;11.474;2023-02-01T08:53:49;8.57;;;2.03;;
3791;SDS011;1911;53.768;11.474;2023-02-01T08:56:20;10.77;;;2.30;;
3791;SDS011;1911;53.768;11.474;2023-02-01T08:58:45;10.77;;;2.60;;
3791;SDS011;1911;53.768;11.474;2023-02-01T09:01:12;21.33;;;2.27;;
3791;SDS011;1911;53.768;11.474;2023-02-01T09:03:40;9.17;;;1.73;;
3791;SDS011;1911;53.768;11.474;2023-02-01T09:06:09;9.50;;;2.50;;
3791;SDS011;1911;53.768;11.474;2023-02-01T09:08:36;12.37;;;1.80;;
3791;SDS011;1911;53.768;11.474;2023-02-01T09:11:04;10.63;;;2.73;;
3791;SDS011;1911;53.768;11.474;2023-02-01T09:13:33;18.37;;;2.97;;
3791;SDS011;1911;53.768;11.474;2023-02-01T09:16:00;10.33;;;2.43;;
3791;SDS011;1911;53.768;11.474;2023-02-01T09:18:26;10.80;;;2.80;;
3791;SDS011;1911;53.768;11.474;2023-02-01T09:20:51;10.57;;;2.10;;
3791;SDS011;1911;53.768;11.474;2023-02-01T09:23:17;10.20;;;2.53;;
3791;SDS011;1911;53.768;11.474;2023-02-01T09:25:45;9.97;;;2.27;;
3791;SDS011;1911;53.768;11.474;2023-02-01T09:28:11;11.47;;;2.87;;
3791;SDS011;1911;53.768;11.474;2023-02-01T09:30:37;7.90;;;2.97;;
3791;SDS011;1911;53.768;11.474;2023-02-01T09:33:03;9.73;;;2.70;;
3791;SDS011;1911;53.768;11.474;2023-02-01T09:35:29;8.50;;;1.83;;
3791;SDS011;1911;53.768;11.474;2023-02-01T09:47:47;6.77;;;1.77;;
3791;SDS011;1911;53.768;11.474;2023-02-01T09:50:19;6.33;;;1.90;;
3791;SDS011;1911;53.768;11.474;2023-02-01T09:58:56;5.47;;;2.00;;
3791;SDS011;1911;53.768;11.474;2023-02-01T10:01:32;8.27;;;2.87;;
3791;SDS011;1911;53.768;11.474;2023-02-01T10:04:37;9.23;;;2.67;;
3791;SDS011;1911;53.768;11.474;2023-02-01T10:11:04;6.73;;;2.40;;
3791;SDS011;1911;53.768;11.474;2023-02-01T10:20:09;14.63;;;3.30;;
3791;SDS011;1911;53.768;11.474;2023-02-01T10:26:23;11.43;;;2.93;;
3791;SDS011;1911;53.768;11.474;2023-02-01T10:35:28;8.57;;;2.50;;
3791;SDS011;1911;53.768;11.474;2023-02-01T10:38:00;17.60;;;4.20;;
3791;SDS011;1911;53.768;11.474;2023-02-01T10:40:28;9.50;;;1.90;;
3791;SDS011;1911;53.768;11.474;2023-02-01T10:42:57;9.07;;;2.43;;
3791;SDS011;1911;53.768;11.474;2023-02-01T10:45:26;11.70;;;3.17;;
3791;SDS011;1911;53.768;11.474;2023-02-01T10:47:55;9.23;;;2.50;;
3791;SDS011;1911;53.768;11.474;2023-02-01T10:50:31;16.80;;;2.37;;
3791;SDS011;1911;53.768;11.474;2023-02-01T10:53:18;9.53;;;2.53;;
3791;SDS011;1911;53.768;11.474;2023-02-01T10:56:07;7.20;;;2.00;;
3791;SDS011;1911;53.768;11.474;2023-02-01T10:58:36;18.53;;;2.67;;
3791;SDS011;1911;53.768;11.474;2023-02-01T11:01:10;10.83;;;2.33;;
3791;SDS011;1911;53.768;11.474;2023-02-01T11:03:58;7.60;;;1.77;;
3791;SDS011;1911;53.768;11.474;2023-02-01T11:08:53;20.27;;;2.23;;
3791;SDS011;1911;53.768;11.474;2023-02-01T11:11:21;13.00;;;2.60;;
3791;SDS011;1911;53.768;11.474;2023-02-01T11:13:51;9.33;;;2.47;;
3791;SDS011;1911;53.768;11.474;2023-02-01T11:16:28;10.87;;;2.03;;
3791;SDS011;1911;53.768;11.474;2023-02-01T11:18:57;19.00;;;2.77;;
3791;SDS011;1911;53.768;11.474;2023-02-01T11:21:23;10.77;;;2.60;;
3791;SDS011;1911;53.768;11.474;2023-02-01T11:23:49;19.67;;;2.73;;
3791;SDS011;1911;53.768;11.474;2023-02-01T11:26:22;12.30;;;2.30;;
3791;SDS011;1911;53.768;11.474;2023-02-01T11:28:51;9.33;;;2.30;;
3791;SDS011;1911;53.768;11.474;2023-02-01T11:31:38;13.03;;;2.63;;
3791;SDS011;1911;53.768;11.474;2023-02-01T11:34:12;6.87;;;2.83;;
3791;SDS011;1911;53.768;11.474;2023-02-01T11:36:42;12.37;;;2.53;;
3791;SDS011;1911;53.768;11.474;2023-02-01T11:44:34;16.43;;;3.40;;
3791;SDS011;1911;53.768;11.474;2023-02-01T11:49:54;15.40;;;4.43;;
3791;SDS011;1911;53.768;11.474;2023-02-01T11:55:42;21.20;;;7.17;;
3791;SDS011;1911;53.768;11.474;2023-02-01T11:58:40;21.00;;;4.00;;
3791;SDS011;1911;53.768;11.474;2023-02-01T12:07:14;21.93;;;3.20;;
3791;SDS011;1911;53.768;11.474;2023-02-01T12:26:47;4.93;;;1.40;;
3791;SDS011;1911;53.768;11.474;2023-02-01T12:32:20;4.37;;;1.10;;
3791;SDS011;1911;53.768;11.474;2023-02-01T12:38:39;9.63;;;1.30;;
3791;SDS011;1911;53.768;11.474;2023-02-01T12:43:46;3.77;;;0.87;;
3791;SDS011;1911;53.768;11.474;2023-02-01T12:46:31;5.27;;;1.43;;
3791;SDS011;1911;53.768;11.474;2023-02-01T12:49:22;6.30;;;1.40;;
3791;SDS011;1911;53.768;11.474;2023-02-01T12:52:00;4.83;;;1.40;;
3791;SDS011;1911;53.768;11.474;2023-02-01T12:54:40;3.53;;;1.53;;
3791;SDS011;1911;53.768;11.474;2023-02-01T12:57:26;7.80;;;2.03;;
3791;SDS011;1911;53.768;11.474;2023-02-01T13:05:31;11.33;;;1.30;;
3791;SDS011;1911;53.768;11.474;2023-02-01T13:08:08;12.43;;;1.30;;
3791;SDS011;1911;53.768;11.474;2023-02-01T13:10:42;6.70;;;3.03;;
3791;SDS011;1911;53.768;11.474;2023-02-01T13:13:28;12.93;;;2.50;;
3791;SDS011;1911;53.768;11.474;2023-02-01T13:18:50;5.10;;;1.33;;
3791;SDS011;1911;53.768;11.474;2023-02-01T13:21:40;8.97;;;3.13;;
3791;SDS011;1911;53.768;11.474;2023-02-01T13:52:29;1.50;;;0.60;;
3791;SDS011;1911;53.768;11.474;2023-02-01T14:00:07;2.67;;;0.77;;
3791;SDS011;1911;53.768;11.474;2023-02-01T14:02:36;6.40;;;1.70;;
3791;SDS011;1911;53.768;11.474;2023-02-01T14:13:23;1.97;;;1.17;;
3791;SDS011;1911;53.768;11.474;2023-02-01T14:23:41;1.90;;;1.00;;
3791;SDS011;1911;53.768;11.474;2023-02-01T14:26:10;7.60;;;1.20;;
3791;SDS011;1911;53.768;11.474;2023-02-01T14:28:50;6.27;;;1.93;;
3791;SDS011;1911;53.768;11.474;2023-02-01T14:34:15;2.30;;;1.20;;
3791;SDS011;1911;53.768;11.474;2023-02-01T14:36:52;4.60;;;0.90;;
3791;SDS011;1911;53.768;11.474;2023-02-01T14:39:26;2.20;;;0.80;;
3791;SDS011;1911;53.768;11.474;2023-02-01T14:42:05;1.93;;;1.20;;
3791;SDS011;1911;53.768;11.474;2023-02-01T14:44:51;1.33;;;0.70;;
3791;SDS011;1911;53.768;11.474;2023-02-01T14:52:32;3.77;;;0.80;;
3791;SDS011;1911;53.768;11.474;2023-02-01T14:55:25;2.80;;;0.90;;
3791;SDS011;1911;53.768;11.474;2023-02-01T14:58:06;5.63;;;0.97;;
3791;SDS011;1911;53.768;11.474;2023-02-01T15:00:58;2.63;;;1.20;;
3791;SDS011;1911;53.768;11.474;2023-02-01T15:03:41;4.33;;;0.90;;
3791;SDS011;1911;53.768;11.474;2023-02-01T15:09:00;2.37;;;1.00;;
3791;SDS011;1911;53.768;11.474;2023-02-01T15:11:29;8.20;;;1.47;;
3791;SDS011;1911;53.768;11.474;2023-02-01T15:13:55;2.33;;;0.97;;
3791;SDS011;1911;53.768;11.474;2023-02-01T15:16:23;3.57;;;1.07;;
3791;SDS011;1911;53.768;11.474;2023-02-01T15:18:50;4.83;;;0.70;;
3791;SDS011;1911;53.768;11.474;2023-02-01T15:21:41;4.37;;;1.50;;
3791;SDS011;1911;53.768;11.474;2023-02-01T15:24:14;4.77;;;1.30;;
3791;SDS011;1911;53.768;11.474;2023-02-01T15:26:48;5.07;;;1.50;;
3791;SDS011;1911;53.768;11.474;2023-02-01T15:29:17;7.30;;;1.53;;
3791;SDS011;1911;53.768;11.474;2023-02-01T15:31:59;5.63;;;1.40;;
3791;SDS011;1911;53.768;11.474;2023-02-01T15:34:47;6.50;;;1.03;;
3791;SDS011;1911;53.768;11.474;2023-02-01T15:37:15;9.53;;;2.23;;
3791;SDS011;1911;53.768;11.474;2023-02-01T15:42:32;2.87;;;1.23;;
3791;SDS011;1911;53.768;11.474;2023-02-01T15:44:59;7.17;;;1.20;;
3791;SDS011;1911;53.768;11.474;2023-02-01T15:47:26;4.30;;;1.60;;
3791;SDS011;1911;53.768;11.474;2023-02-01T15:49:59;6.30;;;1.03;;
3791;SDS011;1911;53.768;11.474;2023-02-01T15:55:17;3.90;;;2.80;;
3791;SDS011;1911;53.768;11.474;2023-02-01T15:57:47;6.10;;;1.83;;
3791;SDS011;1911;53.768;11.474;2023-02-01T16:00:23;4.63;;;1.80;;
3791;SDS011;1911;53.768;11.474;2023-02-01T16:02:53;3.90;;;1.27;;
3791;SDS011;1911;53.768;11.474;2023-02-01T16:05:27;2.43;;;1.70;;
3791;SDS011;1911;53.768;11.474;2023-02-01T16:08:04;7.50;;;1.53;;
3791;SDS011;1911;53.768;11.474;2023-02-01T16:11:00;14.07;;;2.03;;
3791;SDS011;1911;53.768;11.474;2023-02-01T16:13:45;6.67;;;1.67;;
3791;SDS011;1911;53.768;11.474;2023-02-01T16:16:10;9.10;;;2.20;;
3791;SDS011;1911;53.768;11.474;2023-02-01T16:18:39;12.00;;;2.47;;
3791;SDS011;1911;53.768;11.474;2023-02-01T16:21:08;6.97;;;1.63;;
3791;SDS011;1911;53.768;11.474;2023-02-01T16:23:34;11.37;;;2.10;;
3791;SDS011;1911;53.768;11.474;2023-02-01T16:26:03;22.07;;;2.60;;
3791;SDS011;1911;53.768;11.474;2023-02-01T16:28:32;10.00;;;2.30;;
3791;SDS011;1911;53.768;11.474;2023-02-01T16:30:58;6.87;;;1.80;;
3791;SDS011;1911;53.768;11.474;2023-02-01T16:33:24;8.17;;;2.37;;
3791;SDS011;1911;53.768;11.474;2023-02-01T16:35:50;10.47;;;3.23;;
3791;SDS011;1911;53.768;11.474;2023-02-01T16:38:18;11.30;;;2.30;;
3791;SDS011;1911;53.768;11.474;2023-02-01T16:40:46;8.57;;;1.80;;
3791;SDS011;1911;53.768;11.474;2023-02-01T16:43:15;8.70;;;2.47;;
3791;SDS011;1911;53.768;11.474;2023-02-01T16:45:48;7.77;;;1.80;;
3791;SDS011;1911;53.768;11.474;2023-02-01T16:48:26;8.63;;;2.80;;
3791;SDS011;1911;53.768;11.474;2023-02-01T16:51:00;13.13;;;2.13;;
3791;SDS011;1911;53.768;11.474;2023-02-01T16:53:29;16.50;;;3.30;;
3791;SDS011;1911;53.768;11.474;2023-02-01T16:55:56;8.80;;;2.40;;
3791;SDS011;1911;53.768;11.474;2023-02-01T16:58:25;10.47;;;3.17;;
3791;SDS011;1911;53.768;11.474;2023-02-01T17:00:52;11.20;;;2.00;;
3791;SDS011;1911;53.768;11.474;2023-02-01T17:03:19;11.07;;;3.40;;
3791;SDS011;1911;53.768;11.474;2023-02-01T17:05:50;7.27;;;2.33;;
3791;SDS011;1911;53.768;11.474;2023-02-01T17:08:52;12.33;;;2.57;;
3791;SDS011;1911;53.768;11.474;2023-02-01T17:11:11;20.87;;;3.27;;
3791;SDS011;1911;53.768;11.474;2023-02-01T17:13:38;13.53;;;3.50;;
3791;SDS011;1911;53.768;11.474;2023-02-01T17:16:20;24.10;;;2.83;;
3791;SDS011;1911;53.768;11.474;2023-02-01T17:19:36;10.37;;;2.63;;
3791;SDS011;1911;53.768;11.474;2023-02-01T17:21:41;16.43;;;3.90;;
3791;SDS011;1911;53.768;11.474;2023-02-01T17:24:12;12.93;;;3.53;;
3791;SDS011;1911;53.768;11.474;2023-02-01T17:26:41;13.23;;;2.80;;
3791;SDS011;1911;53.768;11.474;2023-02-01T17:29:08;18.10;;;3.40;;
3791;SDS011;1911;53.768;11.474;2023-02-01T17:31:35;19.53;;;3.10;;
3791;SDS011;1911;53.768;11.474;2023-02-01T17:34:03;14.57;;;4.23;;
3791;SDS011;1911;53.768;11.474;2023-02-01T17:36:28;13.13;;;2.77;;
3791;SDS011;1911;53.768;11.474;2023-02-01T17:38:59;15.93;;;2.70;;
3791;SDS011;1911;53.768;11.474;2023-02-01T17:41:25;26.27;;;5.47;;
3791;SDS011;1911;53.768;11.474;2023-02-01T17:43:50;9.37;;;2.97;;
3791;SDS011;1911;53.768;11.474;2023-02-01T17:46:17;15.07;;;5.47;;
3791;SDS011;1911;53.768;11.474;2023-02-01T17:48:45;12.03;;;3.60;;
3791;SDS011;1911;53.768;11.474;2023-02-01T17:51:13;18.03;;;3.03;;
3791;SDS011;1911;53.768;11.474;2023-02-01T17:53:41;24.47;;;3.50;;
3791;SDS011;1911;53.768;11.474;2023-02-01T17:56:20;29.83;;;4.20;;
3791;SDS011;1911;53.768;11.474;2023-02-01T17:58:49;10.80;;;3.13;;
3791;SDS011;1911;53.768;11.474;2023-02-01T18:01:24;16.27;;;4.83;;
3791;SDS011;1911;53.768;11.474;2023-02-01T18:48:45;27.27;;;4.37;;
3791;SDS011;1911;53.768;11.474;2023-02-01T20:17:03;20.23;;;3.00;;
3791;SDS011;1911;53.768;11.474;2023-02-01T20:20:10;9.10;;;3.00;;
3791;SDS011;1911;53.768;11.474;2023-02-01T20:23:43;17.43;;;2.50;;
3791;SDS011;1911;53.768;11.474;2023-02-01T20:47:24;12.33;;;2.20;;
3791;SDS011;1911;53.768;11.474;2023-02-01T21:00:52;17.73;;;2.10;;
3791;SDS011;1911;53.768;11.474;2023-02-01T21:34:28;10.00;;;2.57;;
3791;SDS011;1911;53.768;11.474;2023-02-01T22:45:27;13.57;;;3.50;;
3791;SDS011;1911;53.768;11.474;2023-02-01T22:51:49;26.63;;;3.57;;
3791;SDS011;1911;53.768;11.474;2023-02-01T22:54:16;29.27;;;3.37;;
3791;SDS011;1911;53.768;11.474;2023-02-01T22:56:45;10.40;;;3.23;;
3791;SDS011;1911;53.768;11.474;2023-02-01T22:59:12;12.80;;;3.40;;
3791;SDS011;1911;53.768;11.474;2023-02-01T23:01:38;9.20;;;3.20;;
3791;SDS011;1911;53.768;11.474;2023-02-01T23:04:05;15.60;;;3.27;;
3791;SDS011;1911;53.768;11.474;2023-02-01T23:06:34;28.80;;;3.70;;
3791;SDS011;1911;53.768;11.474;2023-02-01T23:09:02;15.03;;;3.13;;
3791;SDS011;1911;53.768;11.474;2023-02-01T23:11:29;19.90;;;4.60;;
3791;SDS011;1911;53.768;11.474;2023-02-01T23:13:55;13.83;;;3.07;;
3791;SDS011;1911;53.768;11.474;2023-02-01T23:16:21;18.63;;;4.37;;
3791;SDS011;1911;53.768;11.474;2023-02-01T23:18:47;17.10;;;3.43;;
3791;SDS011;1911;53.768;11.474;2023-02-01T23:21:17;22.27;;;3.50;;
3791;SDS011;1911;53.768;11.474;2023-02-01T23:23:45;19.43;;;4.83;;
3791;SDS011;1911;53.768;11.474;2023-02-01T23:26:12;17.80;;;3.67;;
3791;SDS011;1911;53.768;11.474;2023-02-01T23:28:37;12.97;;;3.03;;
3791;SDS011;1911;53.768;11.474;2023-02-01T23:31:07;21.30;;;6.10;;
3791;SDS011;1911;53.768;11.474;2023-02-01T23:33:33;11.13;;;2.87;;
3791;SDS011;1911;53.768;11.474;2023-02-01T23:36:00;20.27;;;3.80;;
3791;SDS011;1911;53.768;11.474;2023-02-01T23:38:27;15.53;;;2.60;;
3791;SDS011;1911;53.768;11.474;2023-02-01T23:40:57;16.23;;;3.07;;
3791;SDS011;1911;53.768;11.474;2023-02-01T23:43:24;14.33;;;2.27;;
3791;SDS011;1911;53.768;11.474;2023-02-01T23:46:08;14.90;;;3.40;;
3791;SDS011;1911;53.768;11.474;2023-02-01T23:48:35;14.23;;;2.60;;
3791;SDS011;1911;53.768;11.474;2023-02-01T23:51:00;22.37;;;4.17;;
3791;SDS011;1911;53.768;11.474;2023-02-01T23:53:26;12.40;;;2.97;;
3791;SDS011;1911;53.768;11.474;2023-02-01T23:55:52;13.70;;;2.80;;
3791;SDS011;1911;53.768;11.474;2023-02-01T23:58:18;14.00;;;3.33;;
